createdAt,value
2023-03-26T00:01:01.991Z,98183.91
2023-03-26T00:03:29.991Z,98180.94
2023-03-26T00:06:07.681Z,98183.13
2023-03-26T00:08:35.621Z,98167.88
2023-03-26T00:11:04.206Z,98169.47
2023-03-26T00:13:32.188Z,98176.75
2023-03-26T00:15:59.120Z,98170.75
2023-03-26T00:18:30.598Z,98173.50
2023-03-26T00:21:05.276Z,98163.81
2023-03-26T00:23:34.981Z,98167.59
2023-03-26T00:26:03.512Z,98162.19
2023-03-26T00:28:30.014Z,98165.94
2023-03-26T00:31:02.221Z,98159.50
2023-03-26T00:33:29.302Z,98156.25
2023-03-26T00:35:58.842Z,98146.28
2023-03-26T00:38:27.513Z,98154.97
2023-03-26T00:40:56.385Z,98154.34
2023-03-26T00:43:23.727Z,98150.72
2023-03-26T00:45:54.271Z,98143.97
2023-03-26T00:48:31.345Z,98140.47
2023-03-26T00:51:06.432Z,98133.97
2023-03-26T00:53:33.487Z,98132.72
2023-03-26T00:56:00.464Z,98127.22
2023-03-26T00:58:27.498Z,98128.75
2023-03-26T01:00:57.420Z,98122.88
2023-03-26T01:03:29.328Z,98111.78
2023-03-26T01:06:12.810Z,98112.28
2023-03-26T01:08:46.774Z,98096.56
2023-03-26T01:11:20.922Z,98101.44
2023-03-26T01:13:54.652Z,98092.13
2023-03-26T01:16:27.550Z,98095.16
2023-03-26T01:18:54.563Z,98094.63
2023-03-26T01:21:28.537Z,98079.81
2023-03-26T01:24:03.057Z,98075.69
2023-03-26T01:26:36.368Z,98066.09
2023-03-26T01:29:03.663Z,98062.63
2023-03-26T01:32:11.211Z,98043.53
2023-03-26T01:34:43.731Z,98034.69
2023-03-26T01:37:24.691Z,98030.91
2023-03-26T01:39:57.235Z,98019.44
2023-03-26T01:42:50.073Z,98015.19
2023-03-26T01:45:21.449Z,97991.31
2023-03-26T01:47:48.441Z,97990.75
2023-03-26T01:50:15.408Z,97992.56
2023-03-26T01:52:41.970Z,97973.81
2023-03-26T01:55:14.310Z,97972.09
2023-03-26T01:57:49.547Z,97973.97
2023-03-26T02:00:28.385Z,97968.66
2023-03-26T02:03:04.809Z,97960.31
2023-03-26T02:05:41.928Z,97943.81
2023-03-26T02:08:12.027Z,97935.91
2023-03-26T02:10:44.568Z,97930.13
2023-03-26T02:13:12.600Z,97928.44
2023-03-26T02:15:59.049Z,97926.84
2023-03-26T02:18:36.683Z,97935.09
2023-03-26T02:21:15.473Z,97928.03
2023-03-26T02:23:46.974Z,97925.19
2023-03-26T02:26:16.098Z,97920.34
2023-03-26T02:28:42.657Z,97921.03
2023-03-26T02:31:13.970Z,97927.44
2023-03-26T02:33:40.739Z,97913.44
2023-03-26T02:36:08.539Z,97914.19
2023-03-26T02:38:35.348Z,97914.38
2023-03-26T02:41:02.543Z,97915.69
2023-03-26T02:43:29.211Z,97914.38
2023-03-26T02:45:56.141Z,97898.69
2023-03-26T02:48:22.966Z,97888.97
2023-03-26T02:50:50.184Z,97887.78
2023-03-26T02:53:17.343Z,97894.78
2023-03-26T02:55:43.832Z,97891.13
2023-03-26T02:58:12.259Z,97893.25
2023-03-26T03:00:39.070Z,97887.53
2023-03-26T03:03:06.673Z,97883.03
2023-03-26T03:05:34.014Z,97880.34
2023-03-26T03:08:00.684Z,97880.91
2023-03-26T03:10:28.630Z,97886.13
2023-03-26T03:12:55.286Z,97876.63
2023-03-26T03:15:21.796Z,97866.00
2023-03-26T03:17:48.301Z,97841.59
2023-03-26T03:20:15.540Z,97832.47
2023-03-26T03:22:42.463Z,97829.78
2023-03-26T03:25:14.172Z,97832.41
2023-03-26T03:27:42.742Z,97821.50
2023-03-26T03:30:11.953Z,97822.16
2023-03-26T03:32:38.958Z,97811.72
2023-03-26T03:35:05.985Z,97803.13
2023-03-26T03:37:32.462Z,97789.06
2023-03-26T03:39:58.917Z,97783.59
2023-03-26T03:42:25.436Z,97776.28
2023-03-26T03:44:51.931Z,97771.91
2023-03-26T03:47:18.504Z,97774.56
2023-03-26T03:49:45.223Z,97770.03
2023-03-26T03:52:11.743Z,97767.81
2023-03-26T03:54:38.196Z,97762.59
2023-03-26T03:57:04.787Z,97749.53
2023-03-26T03:59:31.275Z,97744.59
2023-03-26T04:01:58.002Z,97743.53
2023-03-26T04:04:24.779Z,97742.50
2023-03-26T04:06:52.130Z,97735.91
2023-03-26T04:09:19.068Z,97735.63
2023-03-26T04:11:45.653Z,97734.91
2023-03-26T04:14:12.115Z,97725.25
2023-03-26T04:16:38.638Z,97727.16
2023-03-26T04:19:05.096Z,97716.41
2023-03-26T04:21:32.061Z,97717.81
2023-03-26T04:23:58.574Z,97717.09
2023-03-26T04:26:25.144Z,97728.66
2023-03-26T04:29:17.089Z,97715.75
2023-03-26T04:31:44.117Z,97702.28
2023-03-26T04:34:25.603Z,97709.31
2023-03-26T04:36:54.717Z,97698.53
2023-03-26T04:39:29.078Z,97700.63
2023-03-26T04:41:56.346Z,97706.88
2023-03-26T04:44:22.843Z,97698.00
2023-03-26T04:46:52.900Z,97688.59
2023-03-26T04:49:19.888Z,97684.34
2023-03-26T04:51:47.100Z,97686.66
2023-03-26T04:54:16.299Z,97682.06
2023-03-26T04:57:03.285Z,97670.50
2023-03-26T04:59:34.901Z,97664.09
2023-03-26T05:02:04.158Z,97651.97
2023-03-26T05:04:31.354Z,97642.38
2023-03-26T05:06:59.392Z,97639.44
2023-03-26T05:09:26.933Z,97630.81
2023-03-26T05:11:53.628Z,97628.22
2023-03-26T05:14:20.655Z,97627.59
2023-03-26T05:16:48.878Z,97632.16
2023-03-26T05:19:15.939Z,97633.97
2023-03-26T05:21:42.477Z,97626.38
2023-03-26T05:24:09.000Z,97607.78
2023-03-26T05:26:36.818Z,97603.84
2023-03-26T05:29:05.025Z,97603.59
2023-03-26T05:31:31.600Z,97586.66
2023-03-26T05:34:00.544Z,97577.66
2023-03-26T05:36:28.479Z,97576.06
2023-03-26T05:38:55.069Z,97572.31
2023-03-26T05:41:21.652Z,97567.53
2023-03-26T05:43:49.072Z,97560.06
2023-03-26T05:46:16.460Z,97547.63
2023-03-26T05:48:42.970Z,97535.03
2023-03-26T05:51:09.527Z,97529.97
2023-03-26T05:53:36.026Z,97535.25
2023-03-26T05:56:02.768Z,97530.19
2023-03-26T05:58:31.267Z,97524.00
2023-03-26T06:01:08.518Z,97535.19
2023-03-26T06:03:39.713Z,97536.22
2023-03-26T06:06:15.669Z,97531.94
2023-03-26T06:08:48.928Z,97517.47
2023-03-26T06:11:29.050Z,97495.75
2023-03-26T06:13:55.621Z,97508.34
2023-03-26T06:16:22.296Z,97511.28
2023-03-26T06:18:56.456Z,97514.19
2023-03-26T06:21:27.152Z,97516.00
2023-03-26T06:23:53.964Z,97520.06
2023-03-26T06:26:20.814Z,97521.66
2023-03-26T06:28:47.543Z,97514.72
2023-03-26T06:31:14.122Z,97508.59
2023-03-26T06:33:40.657Z,97521.06
2023-03-26T06:36:07.480Z,97513.75
2023-03-26T06:38:34.031Z,97526.00
2023-03-26T06:41:04.588Z,97513.81
2023-03-26T06:43:33.840Z,97506.00
2023-03-26T06:46:04.437Z,97489.44
2023-03-26T06:48:31.450Z,97496.22
2023-03-26T06:50:58.112Z,97494.94
2023-03-26T06:53:24.636Z,97489.63
2023-03-26T06:55:52.958Z,97488.94
2023-03-26T06:58:19.537Z,97487.81
2023-03-26T07:00:46.216Z,97483.53
2023-03-26T07:03:12.933Z,97482.50
2023-03-26T07:05:41.473Z,97487.13
2023-03-26T07:08:07.960Z,97474.03
2023-03-26T07:10:34.422Z,97479.94
2023-03-26T07:13:01.070Z,97470.66
2023-03-26T07:15:28.880Z,97475.31
2023-03-26T07:17:55.563Z,97480.19
2023-03-26T07:20:22.208Z,97474.88
2023-03-26T07:22:49.386Z,97458.25
2023-03-26T07:25:16.504Z,97471.13
2023-03-26T07:27:49.137Z,97468.97
2023-03-26T07:30:32.603Z,97478.88
2023-03-26T07:33:03.926Z,97474.84
2023-03-26T07:35:36.319Z,97477.53
2023-03-26T07:38:19.213Z,97470.84
2023-03-26T07:40:45.832Z,97472.44
2023-03-26T07:43:30.645Z,97450.22
2023-03-26T07:45:57.622Z,97455.44
2023-03-26T07:48:27.373Z,97453.03
2023-03-26T07:50:55.039Z,97452.25
2023-03-26T07:53:22.587Z,97451.69
2023-03-26T07:56:04.918Z,97450.09
2023-03-26T07:58:44.677Z,97442.56
2023-03-26T08:01:33.017Z,97449.28
2023-03-26T08:04:23.646Z,97456.25
2023-03-26T08:07:21.117Z,97455.47
2023-03-26T08:10:05.632Z,97473.44
2023-03-26T08:12:57.848Z,97491.94
2023-03-26T08:15:38.123Z,97502.38
2023-03-26T08:18:15.954Z,97500.66
2023-03-26T08:20:54.356Z,97498.00
2023-03-26T08:23:27.698Z,97510.88
2023-03-26T08:26:44.262Z,97512.38
2023-03-26T08:29:28.882Z,97504.06
2023-03-26T08:31:57.402Z,97508.44
2023-03-26T08:34:23.978Z,97503.13
2023-03-26T08:36:50.481Z,97502.59
2023-03-26T08:39:17.085Z,97503.88
2023-03-26T08:42:18.040Z,97493.91
2023-03-26T08:45:06.456Z,97487.78
2023-03-26T08:47:45.374Z,97498.50
2023-03-26T08:50:38.137Z,97503.16
2023-03-26T08:53:33.899Z,97496.69
2023-03-26T08:56:37.834Z,97502.53
2023-03-26T08:59:27.574Z,97502.53
2023-03-26T09:02:06.971Z,97498.63
2023-03-26T09:05:01.530Z,97505.41
2023-03-26T09:07:47.333Z,97507.81
2023-03-26T09:10:30.404Z,97505.91
2023-03-26T09:13:33.857Z,97513.03
2023-03-26T09:16:41.942Z,97507.22
2023-03-26T09:19:39.340Z,97500.91
2023-03-26T09:22:11.858Z,97516.34
2023-03-26T09:25:00.221Z,97511.31
2023-03-26T09:27:39.389Z,97518.94
2023-03-26T09:30:30.247Z,97531.31
2023-03-26T09:33:24.659Z,97525.22
2023-03-26T09:35:52.958Z,97522.56
2023-03-26T09:38:31.829Z,97499.09
2023-03-26T09:41:15.521Z,97515.91
2023-03-26T09:44:03.864Z,97506.97
2023-03-26T09:46:42.493Z,97500.25
2023-03-26T09:49:34.657Z,97506.72
2023-03-26T09:52:30.587Z,97496.00
2023-03-26T09:54:57.045Z,97500.03
2023-03-26T09:57:53.896Z,97497.72
2023-03-26T10:00:48.127Z,97501.50
2023-03-26T10:03:49.873Z,97495.81
2023-03-26T10:06:26.705Z,97498.78
2023-03-26T10:09:17.684Z,97498.13
2023-03-26T10:12:01.750Z,97487.09
2023-03-26T10:14:37.093Z,97493.19
2023-03-26T10:17:12.657Z,97498.25
2023-03-26T10:19:57.454Z,97504.81
2023-03-26T10:22:37.640Z,97495.50
2023-03-26T10:25:14.777Z,97497.81
2023-03-26T10:27:59.640Z,97502.75
2023-03-26T10:30:38.061Z,97498.72
2023-03-26T10:33:32.605Z,97509.69
2023-03-26T10:36:14.280Z,97483.84
2023-03-26T10:39:05.657Z,97490.25
2023-03-26T10:41:48.557Z,97480.63
2023-03-26T10:44:33.016Z,97503.03
2023-03-26T10:47:24.360Z,97488.97
2023-03-26T10:50:17.236Z,97482.53
2023-03-26T10:53:18.051Z,97485.44
2023-03-26T10:55:52.224Z,97485.81
2023-03-26T10:58:29.651Z,97487.78
2023-03-26T11:01:41.593Z,97474.88
2023-03-26T11:04:28.664Z,97475.06
2023-03-26T11:07:06.942Z,97468.69
2023-03-26T11:09:49.569Z,97490.59
2023-03-26T11:12:26.321Z,97473.22
2023-03-26T11:15:31.982Z,97479.38
2023-03-26T11:17:58.460Z,97471.59
2023-03-26T11:20:48.255Z,97470.56
2023-03-26T11:23:20.795Z,97469.13
2023-03-26T11:26:32.109Z,97464.56
2023-03-26T11:29:31.910Z,97472.09
2023-03-26T11:32:22.254Z,97454.47
2023-03-26T11:35:40.368Z,97468.13
2023-03-26T11:38:13.338Z,97467.44
2023-03-26T11:40:42.617Z,97454.84
2023-03-26T11:43:12.764Z,97466.28
2023-03-26T11:45:42.542Z,97463.00
2023-03-26T11:48:32.281Z,97460.44
2023-03-26T11:51:05.198Z,97446.50
2023-03-26T11:53:34.601Z,97460.47
2023-03-26T11:56:23.353Z,97454.47
2023-03-26T11:59:08.744Z,97452.78
2023-03-26T12:01:58.443Z,97447.56
2023-03-26T12:04:40.667Z,97435.22
2023-03-26T12:07:09.197Z,97427.34
2023-03-26T12:09:35.998Z,97426.13
2023-03-26T12:12:06.241Z,97424.94
2023-03-26T12:14:35.367Z,97414.31
2023-03-26T12:17:07.353Z,97436.75
2023-03-26T12:19:43.846Z,97447.59
2023-03-26T12:22:37.286Z,97454.88
2023-03-26T12:25:03.735Z,97460.22
2023-03-26T12:27:30.860Z,97458.19
2023-03-26T12:30:19.728Z,97436.19
2023-03-26T12:32:47.965Z,97440.47
2023-03-26T12:35:27.380Z,97420.03
2023-03-26T12:37:55.917Z,97414.53
2023-03-26T12:40:25.008Z,97405.81
2023-03-26T12:44:55.849Z,97397.72
2023-03-26T12:45:44.175Z,97396.13
2023-03-26T12:48:15.684Z,97393.63
2023-03-26T12:51:19.555Z,97398.72
2023-03-26T12:53:57.807Z,97408.44
2023-03-26T12:56:40.406Z,97407.50
2023-03-26T12:59:09.594Z,97402.94
2023-03-26T13:01:39.143Z,97384.75
2023-03-26T13:04:05.729Z,97372.63
2023-03-26T13:06:59.333Z,97372.19
2023-03-26T13:09:58.463Z,97363.81
2023-03-26T13:12:46.017Z,97348.44
2023-03-26T13:15:17.774Z,97342.03
2023-03-26T13:18:07.513Z,97339.91
2023-03-26T13:20:59.103Z,97339.84
2023-03-26T13:23:34.749Z,97324.44
2023-03-26T13:26:01.274Z,97321.81
2023-03-26T13:29:00.180Z,97324.09
2023-03-26T13:31:46.862Z,97319.00
2023-03-26T13:34:45.582Z,97335.81
2023-03-26T13:37:24.511Z,97353.91
2023-03-26T13:40:03.640Z,97410.94
2023-03-26T13:43:01.007Z,97430.06
2023-03-26T13:45:30.177Z,97452.66
2023-03-26T13:47:59.080Z,97491.94
2023-03-26T13:50:28.350Z,97506.03
2023-03-26T13:52:58.956Z,97517.44
2023-03-26T13:55:42.517Z,97496.88
2023-03-26T13:58:08.885Z,97512.50
2023-03-26T14:01:08.181Z,97522.50
2023-03-26T14:03:55.983Z,97519.22
2023-03-26T14:06:48.799Z,97508.97
2023-03-26T14:09:25.125Z,97512.13
2023-03-26T14:11:55.486Z,97522.19
2023-03-26T14:14:47.858Z,97521.16
2023-03-26T14:17:18.981Z,97511.25
2023-03-26T14:19:51.473Z,97498.59
2023-03-26T14:22:47.481Z,97503.94
2023-03-26T14:25:27.104Z,97512.06
2023-03-26T14:28:12.284Z,97514.53
2023-03-26T14:30:48.249Z,97511.41
2023-03-26T14:33:38.554Z,97517.94
2023-03-26T14:36:27.062Z,97524.75
2023-03-26T14:39:18.716Z,97534.44
2023-03-26T14:41:50.913Z,97537.69
2023-03-26T14:44:47.971Z,97535.38
2023-03-26T14:47:21.474Z,97549.13
2023-03-26T14:50:13.766Z,97563.44
2023-03-26T14:52:51.469Z,97563.75
2023-03-26T14:55:44.967Z,97562.97
2023-03-26T14:58:22.094Z,97576.25
2023-03-26T15:01:22.778Z,97608.53
2023-03-26T15:04:21.055Z,97606.38
2023-03-26T15:07:26.409Z,97600.63
2023-03-26T15:10:22.737Z,97594.88
2023-03-26T15:13:15.560Z,97621.44
2023-03-26T15:16:13.142Z,97622.91
2023-03-26T15:18:42.325Z,97641.94
2023-03-26T15:21:33.673Z,97653.63
2023-03-26T15:24:39.591Z,97653.22
2023-03-26T15:27:20.515Z,97654.69
2023-03-26T15:30:10.569Z,97619.91
2023-03-26T15:32:49.440Z,97548.91
2023-03-26T15:35:43.501Z,97555.59
2023-03-26T15:38:46.950Z,97564.22
2023-03-26T15:41:29.632Z,97573.69
2023-03-26T15:44:24.308Z,97573.22
2023-03-26T15:46:56.844Z,97562.81
2023-03-26T15:49:48.213Z,97573.31
2023-03-26T15:52:25.851Z,97564.66
2023-03-26T15:55:01.408Z,97566.38
2023-03-26T15:57:34.584Z,97553.88
2023-03-26T16:00:19.552Z,97565.25
2023-03-26T16:03:15.543Z,97563.56
2023-03-26T16:05:44.810Z,97557.13
2023-03-26T16:08:27.883Z,97560.59
2023-03-26T16:10:57.309Z,97563.78
2023-03-26T16:13:26.653Z,97561.59
2023-03-26T16:16:03.516Z,97565.72
2023-03-26T16:18:44.953Z,97576.16
2023-03-26T16:21:34.568Z,97572.97
2023-03-26T16:24:03.834Z,97576.78
2023-03-26T16:26:54.942Z,97581.22
2023-03-26T16:29:24.041Z,97583.13
2023-03-26T16:31:56.767Z,97589.16
2023-03-26T16:34:52.968Z,97599.19
2023-03-26T16:37:37.859Z,97602.06
2023-03-26T16:40:25.381Z,97603.19
2023-03-26T16:43:10.690Z,97611.28
2023-03-26T16:45:54.774Z,97615.81
2023-03-26T16:48:53.862Z,97617.22
2023-03-26T16:51:44.197Z,97618.56
2023-03-26T16:54:19.731Z,97613.97
2023-03-26T16:57:10.906Z,97608.88
2023-03-26T17:00:04.933Z,97599.50
2023-03-26T17:02:36.641Z,97597.59
2023-03-26T17:05:23.812Z,97599.44
2023-03-26T17:08:09.144Z,97591.34
2023-03-26T17:10:47.903Z,97593.91
2023-03-26T17:13:24.560Z,97595.75
2023-03-26T17:16:01.150Z,97589.88
2023-03-26T17:18:43.665Z,97586.44
2023-03-26T17:21:19.348Z,97586.69
2023-03-26T17:23:52.056Z,97597.22
2023-03-26T17:26:26.279Z,97589.69
2023-03-26T17:29:09.678Z,97583.00
2023-03-26T17:31:59.369Z,97576.88
2023-03-26T17:34:37.720Z,97571.47
2023-03-26T17:37:09.969Z,97575.25
2023-03-26T17:39:39.734Z,97573.44
2023-03-26T17:42:21.426Z,97570.47
2023-03-26T17:44:58.620Z,97567.84
2023-03-26T17:47:56.356Z,97566.78
2023-03-26T17:50:30.112Z,97560.81
2023-03-26T17:53:02.029Z,97560.28
2023-03-26T17:55:36.477Z,97554.34
2023-03-26T17:58:06.140Z,97540.34
2023-03-26T18:00:36.088Z,97535.78
2023-03-26T18:03:12.746Z,97533.94
2023-03-26T18:05:40.478Z,97523.19
2023-03-26T18:08:27.647Z,97536.22
2023-03-26T18:10:57.168Z,97530.81
2023-03-26T18:13:45.417Z,97523.34
2023-03-26T18:16:44.499Z,97526.22
2023-03-26T18:19:22.003Z,97522.53
2023-03-26T18:21:51.360Z,97522.09
2023-03-26T18:24:33.002Z,97531.16
2023-03-26T18:27:06.576Z,97528.97
2023-03-26T18:29:37.975Z,97535.50
2023-03-26T18:32:07.577Z,97543.22
2023-03-26T18:34:36.861Z,97543.97
2023-03-26T18:37:14.917Z,97541.16
2023-03-26T18:40:02.102Z,97538.50
2023-03-26T18:42:31.666Z,97548.06
2023-03-26T18:45:03.979Z,97550.06
2023-03-26T18:47:32.234Z,97553.06
2023-03-26T18:50:00.128Z,97549.34
2023-03-26T18:52:29.904Z,97538.09
2023-03-26T18:54:59.057Z,97537.63
2023-03-26T18:57:28.289Z,97537.59
2023-03-26T19:00:01.693Z,97535.81
2023-03-26T19:02:28.982Z,97547.66
2023-03-26T19:04:56.724Z,97544.88
2023-03-26T19:07:26.606Z,97542.19
2023-03-26T19:09:56.349Z,97558.03
2023-03-26T19:12:29.014Z,97577.53
2023-03-26T19:15:09.651Z,97603.13
2023-03-26T19:17:43.817Z,97607.44
2023-03-26T19:20:33.049Z,97606.50
2023-03-26T19:22:59.953Z,97608.28
2023-03-26T19:25:31.164Z,97604.63
2023-03-26T19:28:14.025Z,97596.38
2023-03-26T19:30:41.816Z,97591.19
2023-03-26T19:33:20.428Z,97589.66
2023-03-26T19:35:53.731Z,97574.53
2023-03-26T19:38:27.137Z,97575.50
2023-03-26T19:40:57.795Z,97573.56
2023-03-26T19:43:25.757Z,97574.63
2023-03-26T19:45:59.773Z,97567.50
2023-03-26T19:48:45.881Z,97558.00
2023-03-26T19:51:20.248Z,97552.44
2023-03-26T19:53:49.678Z,97548.69
2023-03-26T19:56:18.760Z,97545.03
2023-03-26T19:58:45.944Z,97546.22
2023-03-26T20:01:30.358Z,97551.06
2023-03-26T20:04:01.945Z,97554.81
2023-03-26T20:06:41.661Z,97549.38
2023-03-26T20:09:10.883Z,97550.97
2023-03-26T20:11:39.700Z,97544.88
2023-03-26T20:14:25.917Z,97550.00
2023-03-26T20:16:53.023Z,97556.34
2023-03-26T20:19:20.539Z,97562.50
2023-03-26T20:21:47.114Z,97555.63
2023-03-26T20:24:16.472Z,97558.38
2023-03-26T20:26:44.125Z,97554.59
2023-03-26T20:29:11.630Z,97569.75
2023-03-26T20:31:41.494Z,97561.38
2023-03-26T20:34:23.421Z,97576.59
2023-03-26T20:37:01.271Z,97580.66
2023-03-26T20:39:28.060Z,97582.59
2023-03-26T20:41:56.402Z,97586.91
2023-03-26T20:44:23.113Z,97588.72
2023-03-26T20:46:50.943Z,97599.44
2023-03-26T20:49:18.373Z,97603.97
2023-03-26T20:51:45.674Z,97599.78
2023-03-26T20:54:17.735Z,97596.34
2023-03-26T20:56:45.545Z,97596.91
2023-03-26T20:59:17.816Z,97599.28
2023-03-26T21:01:47.300Z,97603.81
2023-03-26T21:04:15.244Z,97618.31
2023-03-26T21:06:43.069Z,97612.22
2023-03-26T21:09:15.007Z,97617.16
2023-03-26T21:12:02.116Z,97614.00
2023-03-26T21:14:44.076Z,97623.22
2023-03-26T21:17:16.814Z,97625.97
2023-03-26T21:19:43.885Z,97637.47
2023-03-26T21:22:16.975Z,97632.28
2023-03-26T21:24:46.839Z,97632.91
2023-03-26T21:27:34.870Z,97626.28
2023-03-26T21:30:01.882Z,97626.59
2023-03-26T21:32:31.594Z,97631.94
2023-03-26T21:34:59.461Z,97637.13
2023-03-26T21:37:27.014Z,97632.28
2023-03-26T21:39:53.863Z,97635.19
2023-03-26T21:42:20.610Z,97632.78
2023-03-26T21:44:47.729Z,97634.69
2023-03-26T21:47:14.910Z,97624.75
2023-03-26T21:49:41.705Z,97618.00
2023-03-26T21:52:14.598Z,97611.50
2023-03-26T21:54:43.109Z,97617.06
2023-03-26T21:57:25.347Z,97619.19
2023-03-26T22:00:18.497Z,97612.16
2023-03-26T22:03:10.161Z,97621.31
2023-03-26T22:06:06.287Z,97620.28
2023-03-26T22:08:42.272Z,97617.03
2023-03-26T22:11:11.414Z,97618.97
2023-03-26T22:13:38.834Z,97628.59
2023-03-26T22:16:07.629Z,97624.22
2023-03-26T22:18:34.535Z,97628.50
2023-03-26T22:21:01.566Z,97625.34
2023-03-26T22:23:34.293Z,97627.00
2023-03-26T22:26:00.997Z,97630.69
2023-03-26T22:28:27.652Z,97636.03
2023-03-26T22:30:54.425Z,97638.22
2023-03-26T22:33:21.143Z,97646.09
2023-03-26T22:35:47.682Z,97650.22
2023-03-26T22:38:14.992Z,97656.22
2023-03-26T22:40:41.524Z,97659.22
2023-03-26T22:43:09.034Z,97658.41
2023-03-26T22:45:37.483Z,97670.25
2023-03-26T22:48:04.606Z,97666.03
2023-03-26T22:50:32.354Z,97673.47
2023-03-26T22:52:58.974Z,97679.63
2023-03-26T22:55:28.994Z,97687.19
2023-03-26T22:57:56.942Z,97686.94
2023-03-26T23:00:23.711Z,97694.06
2023-03-26T23:02:50.408Z,97687.91
2023-03-26T23:05:20.386Z,97689.28
2023-03-26T23:07:47.361Z,97691.63
2023-03-26T23:10:14.233Z,97691.16
2023-03-26T23:12:41.510Z,97687.50
2023-03-26T23:15:09.864Z,97697.94
2023-03-26T23:17:38.202Z,97700.88
2023-03-26T23:20:12.502Z,97695.69
2023-03-26T23:22:38.999Z,97701.28
2023-03-26T23:25:06.295Z,97703.97
2023-03-26T23:27:33.112Z,97704.81
2023-03-26T23:30:01.333Z,97709.16
2023-03-26T23:32:28.121Z,97718.69
2023-03-26T23:34:55.905Z,97728.25
2023-03-26T23:37:23.365Z,97725.34
2023-03-26T23:39:51.155Z,97721.59
2023-03-26T23:42:28.475Z,97735.44
2023-03-26T23:44:56.913Z,97730.69
2023-03-26T23:47:23.720Z,97738.78
2023-03-26T23:49:50.433Z,97728.59
2023-03-26T23:52:16.896Z,97726.78
2023-03-26T23:54:44.610Z,97737.16
2023-03-26T23:57:11.298Z,97748.16
2023-03-26T23:59:38.472Z,97751.91
